FQMA/MPM METAR and TAF weather

Enter ICAO airport designator
Station Type Date Time Source
FQMA METAR 2022/01/18 08:00 UTC NOAA

FQMA 180800Z 15004KT 9999 SCT020 28/21 Q1016 NOSIG


Station Type Date Time Source
FQMA Decoded METAR 2022/01/18 08:00 UTC NOAA

Maputo / Mavalane, Mozambique (FQMA) 25-55S 032-34E 44M
Jan 18, 2022 - 03:00 AM EST / 2022.01.18 0800 UTC
Wind: from the SSE (150 degrees) at 5 MPH (4 KT):0
Visibility: greater than 7 mile(s):0
Sky conditions: partly cloudy
Temperature: 82 F (28 C)
Dew Point: 69 F (21 C)
Relative Humidity: 65%
Pressure (altimeter): 30.00 in. Hg (1016 hPa)
ob: FQMA 180800Z 15004KT 9999 SCT020 28/21 Q1016 NOSIG
cycle: 8

Station Type Date Time Source
FQMA TAF 2022/01/18 06:03 UTC NOAA

TAF FQMA 180400Z 1806/1912 24007KT 9999 SCT020 TX30/1813Z TN22/1903Z PROB30
TEMPO 1809/1815 5000 -RADZ SCT012 BKN018
BECMG 1812/1814 16011KT
BECMG 1819/1821 10008KT

Example: see airport list